sensor_id;sensor_type;location;lat;lon;timestamp;P1;durP1;ratioP1;P2;durP2;ratioP2
52322;SDS011;38263;52.920;6.238;2023-07-20T00:00:09;3.30;;;3.00;;
52322;SDS011;38263;52.920;6.238;2023-07-20T00:02:35;4.05;;;3.13;;
52322;SDS011;38263;52.920;6.238;2023-07-20T00:05:01;3.95;;;3.55;;
52322;SDS011;38263;52.920;6.238;2023-07-20T00:07:26;3.22;;;2.72;;
52322;SDS011;38263;52.920;6.238;2023-07-20T00:09:52;5.10;;;3.20;;
52322;SDS011;38263;52.920;6.238;2023-07-20T00:12:18;4.55;;;2.95;;
52322;SDS011;38263;52.920;6.238;2023-07-20T00:14:44;4.05;;;2.70;;
52322;SDS011;38263;52.920;6.238;2023-07-20T00:17:10;3.47;;;2.45;;
52322;SDS011;38263;52.920;6.238;2023-07-20T00:19:35;2.90;;;2.60;;
52322;SDS011;38263;52.920;6.238;2023-07-20T00:22:02;5.28;;;3.28;;
52322;SDS011;38263;52.920;6.238;2023-07-20T00:24:30;4.47;;;3.20;;
52322;SDS011;38263;52.920;6.238;2023-07-20T00:26:56;4.05;;;2.97;;
52322;SDS011;38263;52.920;6.238;2023-07-20T00:29:21;4.38;;;3.42;;
52322;SDS011;38263;52.920;6.238;2023-07-20T00:31:47;3.20;;;2.65;;
52322;SDS011;38263;52.920;6.238;2023-07-20T00:34:14;2.60;;;2.40;;
52322;SDS011;38263;52.920;6.238;2023-07-20T00:36:39;2.70;;;2.50;;
52322;SDS011;38263;52.920;6.238;2023-07-20T00:39:06;4.82;;;2.35;;
52322;SDS011;38263;52.920;6.238;2023-07-20T00:41:32;3.97;;;2.65;;
52322;SDS011;38263;52.920;6.238;2023-07-20T00:43:58;3.25;;;2.63;;
52322;SDS011;38263;52.920;6.238;2023-07-20T00:46:24;2.90;;;2.40;;
52322;SDS011;38263;52.920;6.238;2023-07-20T00:48:50;3.25;;;2.72;;
52322;SDS011;38263;52.920;6.238;2023-07-20T00:51:16;3.17;;;2.53;;
52322;SDS011;38263;52.920;6.238;2023-07-20T00:53:42;2.88;;;2.17;;
52322;SDS011;38263;52.920;6.238;2023-07-20T00:56:08;3.40;;;2.40;;
52322;SDS011;38263;52.920;6.238;2023-07-20T00:58:35;2.80;;;2.25;;
52322;SDS011;38263;52.920;6.238;2023-07-20T01:01:01;3.05;;;2.05;;
52322;SDS011;38263;52.920;6.238;2023-07-20T01:03:27;2.58;;;2.28;;
52322;SDS011;38263;52.920;6.238;2023-07-20T01:05:54;2.00;;;1.80;;
52322;SDS011;38263;52.920;6.238;2023-07-20T01:11:23;1.90;;;1.63;;
52322;SDS011;38263;52.920;6.238;2023-07-20T01:13:57;1.67;;;1.50;;
52322;SDS011;38263;52.920;6.238;2023-07-20T01:16:23;3.35;;;1.60;;
52322;SDS011;38263;52.920;6.238;2023-07-20T01:18:49;2.33;;;1.58;;
52322;SDS011;38263;52.920;6.238;2023-07-20T01:21:18;2.65;;;2.28;;
52322;SDS011;38263;52.920;6.238;2023-07-20T01:26:27;2.72;;;2.35;;
52322;SDS011;38263;52.920;6.238;2023-07-20T01:31:49;3.42;;;2.65;;
52322;SDS011;38263;52.920;6.238;2023-07-20T01:34:18;2.42;;;2.22;;
52322;SDS011;38263;52.920;6.238;2023-07-20T01:36:44;2.35;;;2.08;;
52322;SDS011;38263;52.920;6.238;2023-07-20T01:39:11;3.30;;;2.55;;
52322;SDS011;38263;52.920;6.238;2023-07-20T01:41:37;2.67;;;2.13;;
52322;SDS011;38263;52.920;6.238;2023-07-20T01:44:03;2.90;;;2.60;;
52322;SDS011;38263;52.920;6.238;2023-07-20T01:46:29;1.98;;;1.80;;
52322;SDS011;38263;52.920;6.238;2023-07-20T01:48:55;3.28;;;1.55;;
52322;SDS011;38263;52.920;6.238;2023-07-20T01:51:21;2.05;;;1.85;;
52322;SDS011;38263;52.920;6.238;2023-07-20T01:53:47;2.15;;;1.77;;
52322;SDS011;38263;52.920;6.238;2023-07-20T01:56:13;1.40;;;1.30;;
52322;SDS011;38263;52.920;6.238;2023-07-20T01:58:39;2.67;;;1.52;;
52322;SDS011;38263;52.920;6.238;2023-07-20T02:01:05;2.78;;;1.60;;
52322;SDS011;38263;52.920;6.238;2023-07-20T02:03:31;1.73;;;1.60;;
52322;SDS011;38263;52.920;6.238;2023-07-20T02:05:57;2.17;;;1.90;;
52322;SDS011;38263;52.920;6.238;2023-07-20T02:08:23;1.90;;;1.55;;
52322;SDS011;38263;52.920;6.238;2023-07-20T02:10:50;4.47;;;1.65;;
52322;SDS011;38263;52.920;6.238;2023-07-20T02:13:16;2.35;;;2.13;;
52322;SDS011;38263;52.920;6.238;2023-07-20T02:15:42;3.22;;;2.33;;
52322;SDS011;38263;52.920;6.238;2023-07-20T02:18:08;3.47;;;2.10;;
52322;SDS011;38263;52.920;6.238;2023-07-20T02:20:35;2.22;;;1.85;;
52322;SDS011;38263;52.920;6.238;2023-07-20T02:23:01;2.53;;;1.90;;
52322;SDS011;38263;52.920;6.238;2023-07-20T02:25:27;3.20;;;2.28;;
52322;SDS011;38263;52.920;6.238;2023-07-20T02:27:52;6.20;;;2.40;;
52322;SDS011;38263;52.920;6.238;2023-07-20T02:30:18;2.10;;;1.90;;
52322;SDS011;38263;52.920;6.238;2023-07-20T02:32:44;2.92;;;2.35;;
52322;SDS011;38263;52.920;6.238;2023-07-20T02:35:13;10.38;;;2.47;;
52322;SDS011;38263;52.920;6.238;2023-07-20T02:37:39;2.08;;;1.85;;
52322;SDS011;38263;52.920;6.238;2023-07-20T02:40:05;2.10;;;1.80;;
52322;SDS011;38263;52.920;6.238;2023-07-20T02:42:32;2.58;;;1.98;;
52322;SDS011;38263;52.920;6.238;2023-07-20T02:44:58;2.45;;;1.90;;
52322;SDS011;38263;52.920;6.238;2023-07-20T02:47:24;5.18;;;2.20;;
52322;SDS011;38263;52.920;6.238;2023-07-20T02:49:50;2.38;;;2.17;;
52322;SDS011;38263;52.920;6.238;2023-07-20T02:52:16;2.53;;;2.13;;
52322;SDS011;38263;52.920;6.238;2023-07-20T02:54:42;2.17;;;1.98;;
52322;SDS011;38263;52.920;6.238;2023-07-20T02:57:08;2.45;;;2.25;;
52322;SDS011;38263;52.920;6.238;2023-07-20T02:59:34;2.00;;;1.80;;
52322;SDS011;38263;52.920;6.238;2023-07-20T03:02:00;2.47;;;2.22;;
52322;SDS011;38263;52.920;6.238;2023-07-20T03:04:26;2.28;;;1.90;;
52322;SDS011;38263;52.920;6.238;2023-07-20T03:06:52;3.83;;;2.17;;
52322;SDS011;38263;52.920;6.238;2023-07-20T03:09:18;44.05;;;3.78;;
52322;SDS011;38263;52.920;6.238;2023-07-20T03:11:44;57.10;;;3.78;;
52322;SDS011;38263;52.920;6.238;2023-07-20T03:14:10;1.77;;;1.23;;
52322;SDS011;38263;52.920;6.238;2023-07-20T03:16:36;3.53;;;1.73;;
52322;SDS011;38263;52.920;6.238;2023-07-20T03:19:02;5.40;;;1.55;;
52322;SDS011;38263;52.920;6.238;2023-07-20T03:21:31;5.75;;;1.88;;
52322;SDS011;38263;52.920;6.238;2023-07-20T03:23:57;47.00;;;2.67;;
52322;SDS011;38263;52.920;6.238;2023-07-20T03:26:22;14.07;;;1.83;;
52322;SDS011;38263;52.920;6.238;2023-07-20T03:28:48;19.17;;;2.13;;
52322;SDS011;38263;52.920;6.238;2023-07-20T03:31:14;1.50;;;1.38;;
52322;SDS011;38263;52.920;6.238;2023-07-20T03:33:40;2.22;;;1.67;;
52322;SDS011;38263;52.920;6.238;2023-07-20T03:36:07;2.00;;;1.73;;
52322;SDS011;38263;52.920;6.238;2023-07-20T03:38:35;2.20;;;1.88;;
52322;SDS011;38263;52.920;6.238;2023-07-20T03:41:01;3.13;;;2.28;;
52322;SDS011;38263;52.920;6.238;2023-07-20T03:43:27;2.55;;;2.10;;
52322;SDS011;38263;52.920;6.238;2023-07-20T03:45:54;3.28;;;2.63;;
52322;SDS011;38263;52.920;6.238;2023-07-20T03:48:21;2.50;;;2.30;;
52322;SDS011;38263;52.920;6.238;2023-07-20T03:50:48;3.35;;;3.05;;
52322;SDS011;38263;52.920;6.238;2023-07-20T03:53:15;3.38;;;2.78;;
52322;SDS011;38263;52.920;6.238;2023-07-20T03:55:45;3.53;;;2.67;;
52322;SDS011;38263;52.920;6.238;2023-07-20T03:58:11;2.97;;;2.67;;
52322;SDS011;38263;52.920;6.238;2023-07-20T04:00:38;3.72;;;2.38;;
52322;SDS011;38263;52.920;6.238;2023-07-20T04:03:04;2.45;;;2.25;;
52322;SDS011;38263;52.920;6.238;2023-07-20T04:05:30;2.53;;;2.33;;
52322;SDS011;38263;52.920;6.238;2023-07-20T04:07:56;3.25;;;2.95;;
52322;SDS011;38263;52.920;6.238;2023-07-20T04:10:22;3.35;;;2.40;;
52322;SDS011;38263;52.920;6.238;2023-07-20T04:12:48;3.15;;;2.50;;
52322;SDS011;38263;52.920;6.238;2023-07-20T04:15:14;2.72;;;2.53;;
52322;SDS011;38263;52.920;6.238;2023-07-20T04:17:40;2.80;;;2.50;;
52322;SDS011;38263;52.920;6.238;2023-07-20T04:20:07;4.13;;;3.10;;
52322;SDS011;38263;52.920;6.238;2023-07-20T04:22:33;4.90;;;3.42;;
52322;SDS011;38263;52.920;6.238;2023-07-20T04:24:59;4.70;;;3.80;;
52322;SDS011;38263;52.920;6.238;2023-07-20T04:27:25;4.47;;;3.55;;
52322;SDS011;38263;52.920;6.238;2023-07-20T04:29:52;4.18;;;3.78;;
52322;SDS011;38263;52.920;6.238;2023-07-20T04:32:18;4.00;;;3.60;;
52322;SDS011;38263;52.920;6.238;2023-07-20T04:34:44;4.10;;;3.53;;
52322;SDS011;38263;52.920;6.238;2023-07-20T04:37:10;4.82;;;3.40;;
52322;SDS011;38263;52.920;6.238;2023-07-20T04:39:36;3.75;;;3.45;;
52322;SDS011;38263;52.920;6.238;2023-07-20T04:42:02;4.00;;;3.70;;
52322;SDS011;38263;52.920;6.238;2023-07-20T04:44:28;5.50;;;4.03;;
52322;SDS011;38263;52.920;6.238;2023-07-20T04:46:54;4.15;;;3.47;;
52322;SDS011;38263;52.920;6.238;2023-07-20T04:49:20;5.05;;;3.90;;
52322;SDS011;38263;52.920;6.238;2023-07-20T04:51:46;4.72;;;3.95;;
52322;SDS011;38263;52.920;6.238;2023-07-20T04:54:12;4.22;;;3.80;;
52322;SDS011;38263;52.920;6.238;2023-07-20T04:56:38;3.95;;;3.47;;
52322;SDS011;38263;52.920;6.238;2023-07-20T04:59:04;4.63;;;4.03;;
52322;SDS011;38263;52.920;6.238;2023-07-20T05:01:30;3.60;;;3.28;;
52322;SDS011;38263;52.920;6.238;2023-07-20T05:03:56;4.25;;;3.85;;
52322;SDS011;38263;52.920;6.238;2023-07-20T05:06:22;4.72;;;3.47;;
52322;SDS011;38263;52.920;6.238;2023-07-20T05:08:48;4.20;;;3.58;;
52322;SDS011;38263;52.920;6.238;2023-07-20T05:11:14;6.03;;;3.20;;
52322;SDS011;38263;52.920;6.238;2023-07-20T05:13:40;3.47;;;2.85;;
52322;SDS011;38263;52.920;6.238;2023-07-20T05:16:06;3.38;;;2.70;;
52322;SDS011;38263;52.920;6.238;2023-07-20T05:18:32;3.30;;;2.38;;
52322;SDS011;38263;52.920;6.238;2023-07-20T05:20:58;3.60;;;2.45;;
52322;SDS011;38263;52.920;6.238;2023-07-20T05:23:24;3.10;;;2.80;;
52322;SDS011;38263;52.920;6.238;2023-07-20T05:25:54;3.00;;;2.70;;
52322;SDS011;38263;52.920;6.238;2023-07-20T05:28:21;3.22;;;2.20;;
52322;SDS011;38263;52.920;6.238;2023-07-20T05:30:47;2.10;;;1.90;;
52322;SDS011;38263;52.920;6.238;2023-07-20T05:33:13;2.53;;;2.13;;
52322;SDS011;38263;52.920;6.238;2023-07-20T05:35:39;2.20;;;1.85;;
52322;SDS011;38263;52.920;6.238;2023-07-20T05:38:05;2.55;;;1.73;;
52322;SDS011;38263;52.920;6.238;2023-07-20T05:40:31;3.15;;;1.80;;
52322;SDS011;38263;52.920;6.238;2023-07-20T05:42:57;3.83;;;1.85;;
52322;SDS011;38263;52.920;6.238;2023-07-20T05:45:24;2.17;;;1.20;;
52322;SDS011;38263;52.920;6.238;2023-07-20T05:47:49;3.53;;;1.25;;
52322;SDS011;38263;52.920;6.238;2023-07-20T05:50:15;2.75;;;1.23;;
52322;SDS011;38263;52.920;6.238;2023-07-20T05:52:41;2.78;;;1.63;;
52322;SDS011;38263;52.920;6.238;2023-07-20T05:55:07;2.10;;;0.88;;
52322;SDS011;38263;52.920;6.238;2023-07-20T05:57:33;2.70;;;0.73;;
52322;SDS011;38263;52.920;6.238;2023-07-20T05:59:58;2.67;;;1.02;;
52322;SDS011;38263;52.920;6.238;2023-07-20T06:02:24;1.70;;;0.50;;
52322;SDS011;38263;52.920;6.238;2023-07-20T06:04:49;1.30;;;0.68;;
52322;SDS011;38263;52.920;6.238;2023-07-20T06:07:15;1.77;;;0.52;;
52322;SDS011;38263;52.920;6.238;2023-07-20T06:09:41;1.80;;;0.68;;
52322;SDS011;38263;52.920;6.238;2023-07-20T06:12:06;3.10;;;0.57;;
52322;SDS011;38263;52.920;6.238;2023-07-20T06:14:33;11.57;;;0.82;;
52322;SDS011;38263;52.920;6.238;2023-07-20T06:16:58;2.03;;;0.73;;
52322;SDS011;38263;52.920;6.238;2023-07-20T06:19:24;1.90;;;0.63;;
52322;SDS011;38263;52.920;6.238;2023-07-20T06:21:50;1.80;;;0.80;;
52322;SDS011;38263;52.920;6.238;2023-07-20T06:24:16;2.80;;;0.40;;
52322;SDS011;38263;52.920;6.238;2023-07-20T06:26:42;2.15;;;0.70;;
52322;SDS011;38263;52.920;6.238;2023-07-20T06:29:08;1.63;;;0.70;;
52322;SDS011;38263;52.920;6.238;2023-07-20T06:31:34;1.50;;;0.50;;
52322;SDS011;38263;52.920;6.238;2023-07-20T06:34:00;2.53;;;0.40;;
52322;SDS011;38263;52.920;6.238;2023-07-20T06:36:27;1.30;;;0.30;;
52322;SDS011;38263;52.920;6.238;2023-07-20T06:38:53;1.40;;;0.32;;
52322;SDS011;38263;52.920;6.238;2023-07-20T06:41:19;2.70;;;0.60;;
52322;SDS011;38263;52.920;6.238;2023-07-20T06:43:44;1.95;;;0.40;;
52322;SDS011;38263;52.920;6.238;2023-07-20T06:46:10;4.10;;;0.55;;
52322;SDS011;38263;52.920;6.238;2023-07-20T06:48:36;1.50;;;0.30;;
52322;SDS011;38263;52.920;6.238;2023-07-20T06:51:02;1.17;;;0.40;;
52322;SDS011;38263;52.920;6.238;2023-07-20T06:53:28;1.73;;;0.30;;
52322;SDS011;38263;52.920;6.238;2023-07-20T06:55:54;2.17;;;0.40;;
52322;SDS011;38263;52.920;6.238;2023-07-20T06:58:21;1.30;;;0.40;;
52322;SDS011;38263;52.920;6.238;2023-07-20T07:00:47;2.90;;;0.60;;
52322;SDS011;38263;52.920;6.238;2023-07-20T07:03:13;1.83;;;0.63;;
52322;SDS011;38263;52.920;6.238;2023-07-20T07:05:39;4.32;;;0.52;;
52322;SDS011;38263;52.920;6.238;2023-07-20T07:08:04;2.75;;;0.40;;
52322;SDS011;38263;52.920;6.238;2023-07-20T07:10:30;2.38;;;0.60;;
52322;SDS011;38263;52.920;6.238;2023-07-20T07:12:56;4.53;;;0.60;;
52322;SDS011;38263;52.920;6.238;2023-07-20T07:15:21;4.03;;;1.05;;
52322;SDS011;38263;52.920;6.238;2023-07-20T07:17:47;1.23;;;0.60;;
52322;SDS011;38263;52.920;6.238;2023-07-20T07:20:13;1.20;;;0.63;;
52322;SDS011;38263;52.920;6.238;2023-07-20T07:22:39;5.63;;;0.50;;
52322;SDS011;38263;52.920;6.238;2023-07-20T07:25:04;4.05;;;0.65;;
52322;SDS011;38263;52.920;6.238;2023-07-20T07:27:30;5.03;;;0.70;;
52322;SDS011;38263;52.920;6.238;2023-07-20T07:29:56;2.05;;;0.80;;
52322;SDS011;38263;52.920;6.238;2023-07-20T07:32:21;3.90;;;0.80;;
52322;SDS011;38263;52.920;6.238;2023-07-20T07:34:47;8.52;;;0.80;;
52322;SDS011;38263;52.920;6.238;2023-07-20T07:37:13;3.20;;;0.52;;
52322;SDS011;38263;52.920;6.238;2023-07-20T07:39:39;6.28;;;0.75;;
52322;SDS011;38263;52.920;6.238;2023-07-20T07:42:05;1.42;;;0.35;;
52322;SDS011;38263;52.920;6.238;2023-07-20T07:44:31;5.45;;;0.68;;
52322;SDS011;38263;52.920;6.238;2023-07-20T07:46:57;2.75;;;0.88;;
52322;SDS011;38263;52.920;6.238;2023-07-20T07:49:23;6.70;;;0.50;;
52322;SDS011;38263;52.920;6.238;2023-07-20T07:51:49;1.60;;;0.35;;
52322;SDS011;38263;52.920;6.238;2023-07-20T07:54:14;4.13;;;0.50;;
52322;SDS011;38263;52.920;6.238;2023-07-20T07:56:40;8.60;;;0.77;;
52322;SDS011;38263;52.920;6.238;2023-07-20T07:59:07;5.63;;;0.60;;
52322;SDS011;38263;52.920;6.238;2023-07-20T08:01:33;7.25;;;0.77;;
52322;SDS011;38263;52.920;6.238;2023-07-20T08:03:58;6.00;;;0.73;;
52322;SDS011;38263;52.920;6.238;2023-07-20T08:06:24;4.82;;;0.70;;
52322;SDS011;38263;52.920;6.238;2023-07-20T08:08:51;2.88;;;0.70;;
52322;SDS011;38263;52.920;6.238;2023-07-20T08:11:17;3.15;;;1.17;;
52322;SDS011;38263;52.920;6.238;2023-07-20T08:13:43;5.45;;;0.60;;
52322;SDS011;38263;52.920;6.238;2023-07-20T08:16:09;1.67;;;0.40;;
52322;SDS011;38263;52.920;6.238;2023-07-20T08:18:35;3.05;;;0.57;;
52322;SDS011;38263;52.920;6.238;2023-07-20T08:21:01;3.85;;;0.50;;
52322;SDS011;38263;52.920;6.238;2023-07-20T08:23:26;2.88;;;0.68;;
52322;SDS011;38263;52.920;6.238;2023-07-20T08:25:52;1.77;;;0.65;;
52322;SDS011;38263;52.920;6.238;2023-07-20T08:28:19;3.30;;;0.50;;
52322;SDS011;38263;52.920;6.238;2023-07-20T08:30:45;2.78;;;0.65;;
52322;SDS011;38263;52.920;6.238;2023-07-20T08:33:14;2.10;;;0.40;;
52322;SDS011;38263;52.920;6.238;2023-07-20T08:35:41;7.82;;;0.57;;
52322;SDS011;38263;52.920;6.238;2023-07-20T08:38:07;4.05;;;0.52;;
52322;SDS011;38263;52.920;6.238;2023-07-20T08:40:35;2.55;;;0.40;;
52322;SDS011;38263;52.920;6.238;2023-07-20T08:43:05;4.63;;;0.50;;
52322;SDS011;38263;52.920;6.238;2023-07-20T08:45:32;1.25;;;0.40;;
52322;SDS011;38263;52.920;6.238;2023-07-20T08:47:59;1.45;;;0.63;;
52322;SDS011;38263;52.920;6.238;2023-07-20T08:50:27;1.55;;;0.40;;
52322;SDS011;38263;52.920;6.238;2023-07-20T08:52:55;2.30;;;0.70;;
52322;SDS011;38263;52.920;6.238;2023-07-20T08:55:23;2.25;;;0.82;;
52322;SDS011;38263;52.920;6.238;2023-07-20T08:57:49;2.83;;;0.55;;
52322;SDS011;38263;52.920;6.238;2023-07-20T09:00:18;3.08;;;0.57;;
52322;SDS011;38263;52.920;6.238;2023-07-20T09:02:45;1.67;;;0.43;;
52322;SDS011;38263;52.920;6.238;2023-07-20T09:05:12;1.55;;;0.57;;
52322;SDS011;38263;52.920;6.238;2023-07-20T09:07:41;1.15;;;0.47;;
52322;SDS011;38263;52.920;6.238;2023-07-20T09:10:07;2.13;;;0.68;;
52322;SDS011;38263;52.920;6.238;2023-07-20T09:12:40;3.28;;;0.75;;
52322;SDS011;38263;52.920;6.238;2023-07-20T09:15:08;2.70;;;0.50;;
52322;SDS011;38263;52.920;6.238;2023-07-20T09:17:34;4.47;;;0.80;;
52322;SDS011;38263;52.920;6.238;2023-07-20T09:20:07;3.90;;;0.70;;
52322;SDS011;38263;52.920;6.238;2023-07-20T09:22:36;1.45;;;0.90;;
52322;SDS011;38263;52.920;6.238;2023-07-20T09:25:10;2.22;;;0.82;;
52322;SDS011;38263;52.920;6.238;2023-07-20T09:27:41;3.10;;;0.70;;
52322;SDS011;38263;52.920;6.238;2023-07-20T09:30:08;4.55;;;0.85;;
52322;SDS011;38263;52.920;6.238;2023-07-20T09:32:44;2.42;;;0.85;;
52322;SDS011;38263;52.920;6.238;2023-07-20T09:35:18;2.88;;;0.75;;
52322;SDS011;38263;52.920;6.238;2023-07-20T09:37:54;5.05;;;0.85;;
52322;SDS011;38263;52.920;6.238;2023-07-20T09:40:24;2.58;;;0.98;;
52322;SDS011;38263;52.920;6.238;2023-07-20T09:42:51;1.98;;;0.93;;
52322;SDS011;38263;52.920;6.238;2023-07-20T09:45:25;3.72;;;0.88;;
52322;SDS011;38263;52.920;6.238;2023-07-20T09:48:00;3.20;;;0.80;;
52322;SDS011;38263;52.920;6.238;2023-07-20T09:50:30;4.13;;;0.80;;
52322;SDS011;38263;52.920;6.238;2023-07-20T09:52:55;2.58;;;0.75;;
52322;SDS011;38263;52.920;6.238;2023-07-20T09:55:22;3.78;;;0.80;;
52322;SDS011;38263;52.920;6.238;2023-07-20T09:57:49;2.42;;;0.88;;
52322;SDS011;38263;52.920;6.238;2023-07-20T10:00:15;3.47;;;1.08;;
52322;SDS011;38263;52.920;6.238;2023-07-20T10:02:42;2.80;;;1.35;;
52322;SDS011;38263;52.920;6.238;2023-07-20T10:05:09;1.42;;;0.65;;
52322;SDS011;38263;52.920;6.238;2023-07-20T10:07:39;2.85;;;1.20;;
52322;SDS011;38263;52.920;6.238;2023-07-20T10:10:10;3.40;;;1.10;;
52322;SDS011;38263;52.920;6.238;2023-07-20T10:12:39;2.08;;;0.70;;
52322;SDS011;38263;52.920;6.238;2023-07-20T10:15:15;3.38;;;0.77;;
52322;SDS011;38263;52.920;6.238;2023-07-20T10:18:41;2.03;;;0.47;;
52322;SDS011;38263;52.920;6.238;2023-07-20T10:20:51;1.25;;;0.50;;
52322;SDS011;38263;52.920;6.238;2023-07-20T10:23:19;1.30;;;0.60;;
52322;SDS011;38263;52.920;6.238;2023-07-20T10:25:45;1.52;;;0.80;;
52322;SDS011;38263;52.920;6.238;2023-07-20T10:28:11;2.65;;;0.73;;
52322;SDS011;38263;52.920;6.238;2023-07-20T10:30:38;4.32;;;0.73;;
52322;SDS011;38263;52.920;6.238;2023-07-20T10:33:05;1.33;;;0.70;;
52322;SDS011;38263;52.920;6.238;2023-07-20T10:35:31;6.30;;;1.00;;
52322;SDS011;38263;52.920;6.238;2023-07-20T10:38:16;2.00;;;0.63;;
52322;SDS011;38263;52.920;6.238;2023-07-20T10:40:42;3.60;;;0.95;;
52322;SDS011;38263;52.920;6.238;2023-07-20T10:43:08;3.53;;;0.70;;
52322;SDS011;38263;52.920;6.238;2023-07-20T10:45:50;1.35;;;0.50;;
52322;SDS011;38263;52.920;6.238;2023-07-20T10:50:44;3.08;;;1.45;;
52322;SDS011;38263;52.920;6.238;2023-07-20T10:53:11;1.33;;;0.70;;
52322;SDS011;38263;52.920;6.238;2023-07-20T10:55:39;1.48;;;0.60;;
52322;SDS011;38263;52.920;6.238;2023-07-20T10:58:09;2.05;;;0.68;;
52322;SDS011;38263;52.920;6.238;2023-07-20T11:00:37;2.58;;;0.55;;
52322;SDS011;38263;52.920;6.238;2023-07-20T11:03:03;1.38;;;0.60;;
52322;SDS011;38263;52.920;6.238;2023-07-20T11:05:37;1.25;;;0.55;;
52322;SDS011;38263;52.920;6.238;2023-07-20T11:08:05;1.65;;;0.68;;
52322;SDS011;38263;52.920;6.238;2023-07-20T11:10:34;3.03;;;0.60;;
52322;SDS011;38263;52.920;6.238;2023-07-20T11:13:18;2.13;;;0.60;;
52322;SDS011;38263;52.920;6.238;2023-07-20T11:15:47;4.60;;;0.73;;
52322;SDS011;38263;52.920;6.238;2023-07-20T11:18:27;1.92;;;0.40;;
52322;SDS011;38263;52.920;6.238;2023-07-20T11:20:53;2.58;;;0.60;;
52322;SDS011;38263;52.920;6.238;2023-07-20T11:23:20;1.23;;;0.50;;
52322;SDS011;38263;52.920;6.238;2023-07-20T11:25:46;1.42;;;0.50;;
52322;SDS011;38263;52.920;6.238;2023-07-20T11:28:12;3.20;;;0.60;;
52322;SDS011;38263;52.920;6.238;2023-07-20T11:30:37;2.25;;;0.50;;
52322;SDS011;38263;52.920;6.238;2023-07-20T11:33:04;3.15;;;1.65;;
52322;SDS011;38263;52.920;6.238;2023-07-20T11:35:30;2.28;;;0.68;;
52322;SDS011;38263;52.920;6.238;2023-07-20T11:37:59;2.25;;;0.40;;
52322;SDS011;38263;52.920;6.238;2023-07-20T11:40:25;1.30;;;0.50;;
52322;SDS011;38263;52.920;6.238;2023-07-20T11:42:51;2.47;;;0.50;;
52322;SDS011;38263;52.920;6.238;2023-07-20T11:45:17;2.40;;;0.70;;
52322;SDS011;38263;52.920;6.238;2023-07-20T11:47:43;2.33;;;0.80;;
52322;SDS011;38263;52.920;6.238;2023-07-20T11:50:12;0.95;;;0.55;;
52322;SDS011;38263;52.920;6.238;2023-07-20T11:52:39;1.63;;;0.60;;
52322;SDS011;38263;52.920;6.238;2023-07-20T11:55:05;3.10;;;0.88;;
52322;SDS011;38263;52.920;6.238;2023-07-20T11:57:32;1.05;;;0.43;;
52322;SDS011;38263;52.920;6.238;2023-07-20T12:00:00;2.83;;;0.45;;
52322;SDS011;38263;52.920;6.238;2023-07-20T12:02:30;1.85;;;0.50;;
52322;SDS011;38263;52.920;6.238;2023-07-20T12:04:57;3.83;;;0.60;;
52322;SDS011;38263;52.920;6.238;2023-07-20T12:07:23;4.88;;;1.17;;
52322;SDS011;38263;52.920;6.238;2023-07-20T12:12:39;1.10;;;0.43;;
52322;SDS011;38263;52.920;6.238;2023-07-20T12:15:25;1.95;;;0.47;;
52322;SDS011;38263;52.920;6.238;2023-07-20T12:17:53;2.53;;;0.82;;
52322;SDS011;38263;52.920;6.238;2023-07-20T12:20:29;3.05;;;0.73;;
52322;SDS011;38263;52.920;6.238;2023-07-20T12:23:08;3.47;;;0.50;;
52322;SDS011;38263;52.920;6.238;2023-07-20T12:25:45;3.55;;;0.52;;
52322;SDS011;38263;52.920;6.238;2023-07-20T12:32:19;1.33;;;0.65;;
52322;SDS011;38263;52.920;6.238;2023-07-20T12:34:45;4.57;;;0.57;;
52322;SDS011;38263;52.920;6.238;2023-07-20T12:37:20;1.08;;;0.40;;
52322;SDS011;38263;52.920;6.238;2023-07-20T12:43:44;1.63;;;0.30;;
52322;SDS011;38263;52.920;6.238;2023-07-20T12:46:25;1.75;;;0.50;;
52322;SDS011;38263;52.920;6.238;2023-07-20T12:51:43;7.30;;;0.50;;
52322;SDS011;38263;52.920;6.238;2023-07-20T12:54:21;1.75;;;0.40;;
52322;SDS011;38263;52.920;6.238;2023-07-20T12:57:02;2.97;;;1.10;;
52322;SDS011;38263;52.920;6.238;2023-07-20T12:59:30;1.30;;;0.40;;
52322;SDS011;38263;52.920;6.238;2023-07-20T13:05:21;3.55;;;0.88;;
52322;SDS011;38263;52.920;6.238;2023-07-20T13:07:56;3.58;;;0.70;;
52322;SDS011;38263;52.920;6.238;2023-07-20T13:10:34;1.50;;;0.30;;
52322;SDS011;38263;52.920;6.238;2023-07-20T13:12:59;3.80;;;0.55;;
52322;SDS011;38263;52.920;6.238;2023-07-20T13:15:29;0.80;;;0.35;;
52322;SDS011;38263;52.920;6.238;2023-07-20T13:18:06;1.65;;;0.43;;
52322;SDS011;38263;52.920;6.238;2023-07-20T13:23:25;1.67;;;0.55;;
52322;SDS011;38263;52.920;6.238;2023-07-20T13:25:51;1.42;;;0.43;;
52322;SDS011;38263;52.920;6.238;2023-07-20T13:28:16;1.58;;;0.40;;
52322;SDS011;38263;52.920;6.238;2023-07-20T13:30:42;0.88;;;0.40;;
52322;SDS011;38263;52.920;6.238;2023-07-20T13:33:10;1.45;;;0.63;;
52322;SDS011;38263;52.920;6.238;2023-07-20T13:35:35;1.75;;;0.50;;
52322;SDS011;38263;52.920;6.238;2023-07-20T13:38:01;8.13;;;1.23;;
52322;SDS011;38263;52.920;6.238;2023-07-20T13:40:26;1.88;;;0.95;;
52322;SDS011;38263;52.920;6.238;2023-07-20T13:42:52;2.25;;;0.50;;
52322;SDS011;38263;52.920;6.238;2023-07-20T13:45:17;12.80;;;1.63;;
52322;SDS011;38263;52.920;6.238;2023-07-20T13:47:43;1.88;;;0.30;;
52322;SDS011;38263;52.920;6.238;2023-07-20T13:50:09;2.22;;;0.60;;
52322;SDS011;38263;52.920;6.238;2023-07-20T13:52:35;2.00;;;0.45;;
52322;SDS011;38263;52.920;6.238;2023-07-20T13:55:01;4.43;;;0.88;;
52322;SDS011;38263;52.920;6.238;2023-07-20T13:57:28;2.28;;;0.50;;
52322;SDS011;38263;52.920;6.238;2023-07-20T13:59:58;1.40;;;0.50;;
52322;SDS011;38263;52.920;6.238;2023-07-20T14:02:25;4.30;;;0.82;;
52322;SDS011;38263;52.920;6.238;2023-07-20T14:04:50;1.85;;;0.38;;
52322;SDS011;38263;52.920;6.238;2023-07-20T14:07:16;1.30;;;0.50;;
52322;SDS011;38263;52.920;6.238;2023-07-20T14:09:41;2.53;;;0.52;;
52322;SDS011;38263;52.920;6.238;2023-07-20T14:12:07;1.55;;;0.30;;
52322;SDS011;38263;52.920;6.238;2023-07-20T14:14:36;0.95;;;0.20;;
52322;SDS011;38263;52.920;6.238;2023-07-20T14:17:01;1.13;;;0.30;;
52322;SDS011;38263;52.920;6.238;2023-07-20T14:19:27;1.48;;;0.40;;
52322;SDS011;38263;52.920;6.238;2023-07-20T14:21:53;3.13;;;0.40;;
52322;SDS011;38263;52.920;6.238;2023-07-20T14:24:20;2.33;;;0.63;;
52322;SDS011;38263;52.920;6.238;2023-07-20T14:26:45;1.88;;;0.40;;
52322;SDS011;38263;52.920;6.238;2023-07-20T14:29:13;2.80;;;0.52;;
52322;SDS011;38263;52.920;6.238;2023-07-20T14:34:33;1.27;;;0.38;;
52322;SDS011;38263;52.920;6.238;2023-07-20T14:37:01;1.10;;;0.47;;
52322;SDS011;38263;52.920;6.238;2023-07-20T14:39:27;4.43;;;0.55;;
52322;SDS011;38263;52.920;6.238;2023-07-20T14:41:53;2.70;;;0.50;;
52322;SDS011;38263;52.920;6.238;2023-07-20T14:44:18;1.45;;;0.60;;
52322;SDS011;38263;52.920;6.238;2023-07-20T14:46:45;1.65;;;0.50;;
52322;SDS011;38263;52.920;6.238;2023-07-20T14:49:11;2.40;;;0.50;;
52322;SDS011;38263;52.920;6.238;2023-07-20T14:51:36;1.52;;;0.65;;
52322;SDS011;38263;52.920;6.238;2023-07-20T14:54:08;5.78;;;0.65;;
52322;SDS011;38263;52.920;6.238;2023-07-20T14:56:35;1.25;;;0.50;;
52322;SDS011;38263;52.920;6.238;2023-07-20T14:59:36;1.42;;;0.38;;
52322;SDS011;38263;52.920;6.238;2023-07-20T15:02:00;1.55;;;0.60;;
52322;SDS011;38263;52.920;6.238;2023-07-20T15:04:31;1.88;;;0.40;;
52322;SDS011;38263;52.920;6.238;2023-07-20T15:06:56;1.27;;;0.50;;
52322;SDS011;38263;52.920;6.238;2023-07-20T15:09:29;1.35;;;0.57;;
52322;SDS011;38263;52.920;6.238;2023-07-20T15:12:34;2.75;;;0.70;;
52322;SDS011;38263;52.920;6.238;2023-07-20T15:17:43;1.77;;;0.60;;
52322;SDS011;38263;52.920;6.238;2023-07-20T15:20:22;0.88;;;0.38;;
52322;SDS011;38263;52.920;6.238;2023-07-20T15:22:48;1.75;;;0.60;;
52322;SDS011;38263;52.920;6.238;2023-07-20T15:25:14;3.53;;;0.88;;